sensor_id;sensor_type;location;lat;lon;timestamp;P1;durP1;ratioP1;P2;durP2;ratioP2
71490;SDS011;59307;50.060;9.150;2023-02-15T00:00:52;38.97;;;15.00;;
71490;SDS011;59307;50.060;9.150;2023-02-15T00:03:20;35.95;;;13.10;;
71490;SDS011;59307;50.060;9.150;2023-02-15T00:05:45;39.93;;;14.77;;
71490;SDS011;59307;50.060;9.150;2023-02-15T00:08:10;37.33;;;13.00;;
71490;SDS011;59307;50.060;9.150;2023-02-15T00:10:35;41.00;;;13.83;;
71490;SDS011;59307;50.060;9.150;2023-02-15T00:13:00;40.07;;;14.47;;
71490;SDS011;59307;50.060;9.150;2023-02-15T00:15:25;39.07;;;14.93;;
71490;SDS011;59307;50.060;9.150;2023-02-15T00:17:51;39.73;;;14.13;;
71490;SDS011;59307;50.060;9.150;2023-02-15T00:20:16;39.97;;;14.43;;
71490;SDS011;59307;50.060;9.150;2023-02-15T00:22:41;35.57;;;12.43;;
71490;SDS011;59307;50.060;9.150;2023-02-15T00:25:06;36.57;;;13.87;;
71490;SDS011;59307;50.060;9.150;2023-02-15T00:27:32;43.33;;;15.43;;
71490;SDS011;59307;50.060;9.150;2023-02-15T00:29:57;40.45;;;14.80;;
71490;SDS011;59307;50.060;9.150;2023-02-15T00:32:23;43.73;;;14.93;;
71490;SDS011;59307;50.060;9.150;2023-02-15T00:34:48;42.30;;;14.83;;
71490;SDS011;59307;50.060;9.150;2023-02-15T00:37:13;41.20;;;14.40;;
71490;SDS011;59307;50.060;9.150;2023-02-15T00:39:38;36.90;;;12.73;;
71490;SDS011;59307;50.060;9.150;2023-02-15T00:42:03;34.87;;;12.20;;
71490;SDS011;59307;50.060;9.150;2023-02-15T00:44:28;38.77;;;13.97;;
71490;SDS011;59307;50.060;9.150;2023-02-15T00:46:54;40.93;;;14.00;;
71490;SDS011;59307;50.060;9.150;2023-02-15T00:49:19;40.00;;;14.57;;
71490;SDS011;59307;50.060;9.150;2023-02-15T00:51:44;37.90;;;13.77;;
71490;SDS011;59307;50.060;9.150;2023-02-15T00:54:09;37.13;;;13.33;;
71490;SDS011;59307;50.060;9.150;2023-02-15T00:56:34;39.73;;;13.83;;
71490;SDS011;59307;50.060;9.150;2023-02-15T00:59:00;39.77;;;13.23;;
71490;SDS011;59307;50.060;9.150;2023-02-15T01:01:25;36.93;;;12.97;;
71490;SDS011;59307;50.060;9.150;2023-02-15T01:03:50;37.77;;;12.73;;
71490;SDS011;59307;50.060;9.150;2023-02-15T01:06:16;33.47;;;12.13;;
71490;SDS011;59307;50.060;9.150;2023-02-15T01:08:41;42.17;;;14.47;;
71490;SDS011;59307;50.060;9.150;2023-02-15T01:11:08;38.80;;;13.27;;
71490;SDS011;59307;50.060;9.150;2023-02-15T01:13:34;39.72;;;13.07;;
71490;SDS011;59307;50.060;9.150;2023-02-15T01:15:59;36.85;;;12.13;;
71490;SDS011;59307;50.060;9.150;2023-02-15T01:18:25;35.87;;;12.67;;
71490;SDS011;59307;50.060;9.150;2023-02-15T01:20:50;38.43;;;13.47;;
71490;SDS011;59307;50.060;9.150;2023-02-15T01:23:15;38.60;;;14.20;;
71490;SDS011;59307;50.060;9.150;2023-02-15T01:25:41;41.33;;;13.37;;
71490;SDS011;59307;50.060;9.150;2023-02-15T01:28:06;34.25;;;12.07;;
71490;SDS011;59307;50.060;9.150;2023-02-15T01:30:31;42.47;;;13.33;;
71490;SDS011;59307;50.060;9.150;2023-02-15T01:32:57;41.00;;;13.97;;
71490;SDS011;59307;50.060;9.150;2023-02-15T01:35:22;32.83;;;12.37;;
71490;SDS011;59307;50.060;9.150;2023-02-15T01:37:47;38.23;;;12.60;;
71490;SDS011;59307;50.060;9.150;2023-02-15T01:40:14;34.67;;;11.77;;
71490;SDS011;59307;50.060;9.150;2023-02-15T01:42:39;37.63;;;13.23;;
71490;SDS011;59307;50.060;9.150;2023-02-15T01:50:27;42.60;;;13.27;;
71490;SDS011;59307;50.060;9.150;2023-02-15T01:52:58;39.70;;;12.32;;
71490;SDS011;59307;50.060;9.150;2023-02-15T01:55:27;37.97;;;13.33;;
71490;SDS011;59307;50.060;9.150;2023-02-15T01:57:54;41.47;;;13.70;;
71490;SDS011;59307;50.060;9.150;2023-02-15T02:00:19;38.43;;;13.10;;
71490;SDS011;59307;50.060;9.150;2023-02-15T02:02:45;41.45;;;12.98;;
71490;SDS011;59307;50.060;9.150;2023-02-15T02:05:11;43.28;;;13.13;;
71490;SDS011;59307;50.060;9.150;2023-02-15T02:07:37;39.70;;;13.03;;
71490;SDS011;59307;50.060;9.150;2023-02-15T02:10:04;40.38;;;13.15;;
71490;SDS011;59307;50.060;9.150;2023-02-15T02:12:29;40.87;;;13.80;;
71490;SDS011;59307;50.060;9.150;2023-02-15T02:14:55;39.95;;;13.43;;
71490;SDS011;59307;50.060;9.150;2023-02-15T02:27:48;38.22;;;12.75;;
71490;SDS011;59307;50.060;9.150;2023-02-15T02:30:24;40.47;;;12.90;;
71490;SDS011;59307;50.060;9.150;2023-02-15T02:33:07;34.33;;;12.07;;
71490;SDS011;59307;50.060;9.150;2023-02-15T02:38:06;38.92;;;13.05;;
71490;SDS011;59307;50.060;9.150;2023-02-15T02:40:41;45.13;;;15.18;;
71490;SDS011;59307;50.060;9.150;2023-02-15T02:43:15;38.95;;;12.93;;
71490;SDS011;59307;50.060;9.150;2023-02-15T02:45:44;39.43;;;13.20;;
71490;SDS011;59307;50.060;9.150;2023-02-15T02:48:13;44.78;;;13.90;;
71490;SDS011;59307;50.060;9.150;2023-02-15T02:50:40;38.47;;;14.60;;
71490;SDS011;59307;50.060;9.150;2023-02-15T02:53:05;37.17;;;14.27;;
71490;SDS011;59307;50.060;9.150;2023-02-15T02:58:20;36.03;;;12.67;;
71490;SDS011;59307;50.060;9.150;2023-02-15T03:00:54;40.80;;;14.00;;
71490;SDS011;59307;50.060;9.150;2023-02-15T03:03:28;41.45;;;14.13;;
71490;SDS011;59307;50.060;9.150;2023-02-15T03:05:54;41.13;;;13.95;;
71490;SDS011;59307;50.060;9.150;2023-02-15T03:08:22;41.92;;;14.25;;
71490;SDS011;59307;50.060;9.150;2023-02-15T03:10:53;39.00;;;13.00;;
71490;SDS011;59307;50.060;9.150;2023-02-15T03:13:19;42.30;;;13.95;;
71490;SDS011;59307;50.060;9.150;2023-02-15T03:15:44;41.83;;;13.93;;
71490;SDS011;59307;50.060;9.150;2023-02-15T03:18:30;40.10;;;13.47;;
71490;SDS011;59307;50.060;9.150;2023-02-15T03:20:58;39.42;;;14.60;;
71490;SDS011;59307;50.060;9.150;2023-02-15T03:23:25;40.80;;;13.35;;
71490;SDS011;59307;50.060;9.150;2023-02-15T03:25:52;40.45;;;13.43;;
71490;SDS011;59307;50.060;9.150;2023-02-15T03:28:23;39.30;;;13.32;;
71490;SDS011;59307;50.060;9.150;2023-02-15T03:30:51;32.17;;;11.27;;
71490;SDS011;59307;50.060;9.150;2023-02-15T03:33:17;37.78;;;13.30;;
71490;SDS011;59307;50.060;9.150;2023-02-15T03:38:09;36.95;;;11.85;;
71490;SDS011;59307;50.060;9.150;2023-02-15T03:40:40;40.58;;;13.40;;
71490;SDS011;59307;50.060;9.150;2023-02-15T03:43:37;36.22;;;12.52;;
71490;SDS011;59307;50.060;9.150;2023-02-15T03:46:09;31.50;;;11.57;;
71490;SDS011;59307;50.060;9.150;2023-02-15T03:48:38;34.45;;;12.18;;
71490;SDS011;59307;50.060;9.150;2023-02-15T03:51:12;40.88;;;13.93;;
71490;SDS011;59307;50.060;9.150;2023-02-15T03:53:57;35.20;;;11.70;;
71490;SDS011;59307;50.060;9.150;2023-02-15T03:56:23;35.03;;;12.38;;
71490;SDS011;59307;50.060;9.150;2023-02-15T03:58:49;34.90;;;12.17;;
71490;SDS011;59307;50.060;9.150;2023-02-15T04:01:47;34.58;;;12.35;;
71490;SDS011;59307;50.060;9.150;2023-02-15T04:04:37;35.80;;;12.73;;
71490;SDS011;59307;50.060;9.150;2023-02-15T04:07:03;38.13;;;12.10;;
71490;SDS011;59307;50.060;9.150;2023-02-15T04:09:29;34.70;;;12.48;;
71490;SDS011;59307;50.060;9.150;2023-02-15T04:12:12;34.30;;;11.45;;
71490;SDS011;59307;50.060;9.150;2023-02-15T04:14:38;35.63;;;11.20;;
71490;SDS011;59307;50.060;9.150;2023-02-15T04:17:21;29.95;;;11.45;;
71490;SDS011;59307;50.060;9.150;2023-02-15T04:19:47;39.23;;;13.40;;
71490;SDS011;59307;50.060;9.150;2023-02-15T04:22:30;35.28;;;12.25;;
71490;SDS011;59307;50.060;9.150;2023-02-15T04:25:14;32.43;;;12.50;;
71490;SDS011;59307;50.060;9.150;2023-02-15T04:27:47;38.70;;;14.07;;
71490;SDS011;59307;50.060;9.150;2023-02-15T04:30:13;37.35;;;11.82;;
71490;SDS011;59307;50.060;9.150;2023-02-15T04:32:39;38.15;;;12.52;;
71490;SDS011;59307;50.060;9.150;2023-02-15T04:35:04;37.77;;;12.33;;
71490;SDS011;59307;50.060;9.150;2023-02-15T04:37:30;37.15;;;12.85;;
71490;SDS011;59307;50.060;9.150;2023-02-15T04:39:55;33.90;;;11.40;;
71490;SDS011;59307;50.060;9.150;2023-02-15T04:42:20;35.00;;;12.37;;
71490;SDS011;59307;50.060;9.150;2023-02-15T04:44:46;34.57;;;11.37;;
71490;SDS011;59307;50.060;9.150;2023-02-15T04:47:11;38.63;;;12.40;;
71490;SDS011;59307;50.060;9.150;2023-02-15T04:49:36;33.07;;;11.23;;
71490;SDS011;59307;50.060;9.150;2023-02-15T04:52:01;35.90;;;11.23;;
71490;SDS011;59307;50.060;9.150;2023-02-15T04:54:26;40.53;;;13.37;;
71490;SDS011;59307;50.060;9.150;2023-02-15T04:56:52;32.20;;;11.13;;
71490;SDS011;59307;50.060;9.150;2023-02-15T04:59:17;35.37;;;12.87;;
71490;SDS011;59307;50.060;9.150;2023-02-15T05:01:42;36.07;;;12.07;;
71490;SDS011;59307;50.060;9.150;2023-02-15T05:04:07;30.63;;;10.70;;
71490;SDS011;59307;50.060;9.150;2023-02-15T05:06:33;32.20;;;10.57;;
71490;SDS011;59307;50.060;9.150;2023-02-15T05:08:58;30.93;;;10.80;;
71490;SDS011;59307;50.060;9.150;2023-02-15T05:11:24;27.08;;;10.23;;
71490;SDS011;59307;50.060;9.150;2023-02-15T05:13:49;31.60;;;11.30;;
71490;SDS011;59307;50.060;9.150;2023-02-15T05:16:14;30.33;;;11.50;;
71490;SDS011;59307;50.060;9.150;2023-02-15T05:18:39;29.83;;;10.57;;
71490;SDS011;59307;50.060;9.150;2023-02-15T05:21:05;33.70;;;12.27;;
71490;SDS011;59307;50.060;9.150;2023-02-15T05:23:30;29.07;;;10.67;;
71490;SDS011;59307;50.060;9.150;2023-02-15T05:25:55;24.33;;;10.33;;
71490;SDS011;59307;50.060;9.150;2023-02-15T05:28:39;28.42;;;11.45;;
71490;SDS011;59307;50.060;9.150;2023-02-15T05:31:11;26.87;;;10.97;;
71490;SDS011;59307;50.060;9.150;2023-02-15T05:33:37;30.75;;;11.25;;
71490;SDS011;59307;50.060;9.150;2023-02-15T05:36:02;27.37;;;10.63;;
71490;SDS011;59307;50.060;9.150;2023-02-15T05:38:27;26.07;;;9.80;;
71490;SDS011;59307;50.060;9.150;2023-02-15T05:40:53;28.03;;;10.10;;
71490;SDS011;59307;50.060;9.150;2023-02-15T05:43:18;28.60;;;11.57;;
71490;SDS011;59307;50.060;9.150;2023-02-15T05:45:44;26.33;;;10.48;;
71490;SDS011;59307;50.060;9.150;2023-02-15T05:48:10;26.77;;;10.00;;
71490;SDS011;59307;50.060;9.150;2023-02-15T05:50:35;26.33;;;9.63;;
71490;SDS011;59307;50.060;9.150;2023-02-15T05:53:00;25.13;;;9.80;;
71490;SDS011;59307;50.060;9.150;2023-02-15T05:55:25;25.87;;;10.33;;
71490;SDS011;59307;50.060;9.150;2023-02-15T05:57:50;33.37;;;11.27;;
71490;SDS011;59307;50.060;9.150;2023-02-15T06:00:16;29.57;;;10.40;;
71490;SDS011;59307;50.060;9.150;2023-02-15T06:02:41;23.85;;;8.63;;
71490;SDS011;59307;50.060;9.150;2023-02-15T06:05:06;26.47;;;10.97;;
71490;SDS011;59307;50.060;9.150;2023-02-15T06:07:31;29.07;;;10.13;;
71490;SDS011;59307;50.060;9.150;2023-02-15T06:09:57;22.73;;;8.57;;
71490;SDS011;59307;50.060;9.150;2023-02-15T06:12:22;26.10;;;10.20;;
71490;SDS011;59307;50.060;9.150;2023-02-15T06:14:47;29.83;;;10.57;;
71490;SDS011;59307;50.060;9.150;2023-02-15T06:17:12;24.87;;;9.77;;
71490;SDS011;59307;50.060;9.150;2023-02-15T06:19:38;27.83;;;10.10;;
71490;SDS011;59307;50.060;9.150;2023-02-15T06:22:03;28.23;;;10.67;;
71490;SDS011;59307;50.060;9.150;2023-02-15T06:24:28;27.50;;;11.00;;
71490;SDS011;59307;50.060;9.150;2023-02-15T06:26:53;27.80;;;10.17;;
71490;SDS011;59307;50.060;9.150;2023-02-15T06:29:18;27.10;;;11.03;;
71490;SDS011;59307;50.060;9.150;2023-02-15T06:31:43;28.43;;;10.13;;
71490;SDS011;59307;50.060;9.150;2023-02-15T06:34:08;26.23;;;10.30;;
71490;SDS011;59307;50.060;9.150;2023-02-15T06:36:34;24.40;;;9.57;;
71490;SDS011;59307;50.060;9.150;2023-02-15T06:38:59;28.03;;;10.27;;
71490;SDS011;59307;50.060;9.150;2023-02-15T06:41:24;29.57;;;11.10;;
71490;SDS011;59307;50.060;9.150;2023-02-15T06:43:49;27.77;;;9.80;;
71490;SDS011;59307;50.060;9.150;2023-02-15T06:46:15;28.67;;;11.07;;
71490;SDS011;59307;50.060;9.150;2023-02-15T06:48:40;28.53;;;10.93;;
71490;SDS011;59307;50.060;9.150;2023-02-15T06:51:05;29.20;;;10.93;;
71490;SDS011;59307;50.060;9.150;2023-02-15T06:53:30;30.70;;;11.60;;
71490;SDS011;59307;50.060;9.150;2023-02-15T06:56:03;26.77;;;11.27;;
71490;SDS011;59307;50.060;9.150;2023-02-15T06:58:31;31.17;;;11.00;;
71490;SDS011;59307;50.060;9.150;2023-02-15T07:00:56;28.17;;;11.07;;
71490;SDS011;59307;50.060;9.150;2023-02-15T07:03:21;30.73;;;10.90;;
71490;SDS011;59307;50.060;9.150;2023-02-15T07:05:46;29.57;;;11.67;;
71490;SDS011;59307;50.060;9.150;2023-02-15T07:08:13;27.30;;;9.70;;
71490;SDS011;59307;50.060;9.150;2023-02-15T07:10:39;26.97;;;9.97;;
71490;SDS011;59307;50.060;9.150;2023-02-15T07:13:04;26.03;;;10.27;;
71490;SDS011;59307;50.060;9.150;2023-02-15T07:15:29;28.07;;;10.70;;
71490;SDS011;59307;50.060;9.150;2023-02-15T07:17:55;27.40;;;10.90;;
71490;SDS011;59307;50.060;9.150;2023-02-15T07:20:22;25.75;;;9.80;;
71490;SDS011;59307;50.060;9.150;2023-02-15T07:22:47;27.35;;;11.30;;
71490;SDS011;59307;50.060;9.150;2023-02-15T07:25:13;27.00;;;10.83;;
71490;SDS011;59307;50.060;9.150;2023-02-15T07:27:39;29.10;;;9.93;;
71490;SDS011;59307;50.060;9.150;2023-02-15T07:30:05;30.55;;;11.25;;
71490;SDS011;59307;50.060;9.150;2023-02-15T07:32:31;31.73;;;11.50;;
71490;SDS011;59307;50.060;9.150;2023-02-15T07:34:57;30.42;;;10.85;;
71490;SDS011;59307;50.060;9.150;2023-02-15T07:37:22;28.13;;;10.23;;
71490;SDS011;59307;50.060;9.150;2023-02-15T07:39:47;25.80;;;9.83;;
71490;SDS011;59307;50.060;9.150;2023-02-15T07:42:13;24.17;;;9.77;;
71490;SDS011;59307;50.060;9.150;2023-02-15T07:44:38;23.67;;;9.60;;
71490;SDS011;59307;50.060;9.150;2023-02-15T07:47:03;27.47;;;11.07;;
71490;SDS011;59307;50.060;9.150;2023-02-15T07:49:28;28.83;;;10.70;;
71490;SDS011;59307;50.060;9.150;2023-02-15T07:51:53;28.57;;;10.97;;
71490;SDS011;59307;50.060;9.150;2023-02-15T07:54:19;29.87;;;10.23;;
71490;SDS011;59307;50.060;9.150;2023-02-15T07:56:44;28.80;;;10.93;;
71490;SDS011;59307;50.060;9.150;2023-02-15T07:59:09;29.53;;;11.33;;
71490;SDS011;59307;50.060;9.150;2023-02-15T08:01:35;31.20;;;11.17;;
71490;SDS011;59307;50.060;9.150;2023-02-15T08:04:01;26.83;;;10.43;;
71490;SDS011;59307;50.060;9.150;2023-02-15T08:06:28;29.83;;;11.20;;
71490;SDS011;59307;50.060;9.150;2023-02-15T08:08:53;27.33;;;10.63;;
71490;SDS011;59307;50.060;9.150;2023-02-15T08:11:20;29.07;;;11.07;;
71490;SDS011;59307;50.060;9.150;2023-02-15T08:13:52;27.77;;;11.00;;
71490;SDS011;59307;50.060;9.150;2023-02-15T08:21:45;29.48;;;11.55;;
71490;SDS011;59307;50.060;9.150;2023-02-15T08:24:11;32.58;;;12.27;;
71490;SDS011;59307;50.060;9.150;2023-02-15T08:26:36;27.27;;;11.07;;
71490;SDS011;59307;50.060;9.150;2023-02-15T08:29:03;26.45;;;10.55;;
71490;SDS011;59307;50.060;9.150;2023-02-15T08:31:28;25.97;;;10.27;;
71490;SDS011;59307;50.060;9.150;2023-02-15T08:33:55;27.83;;;11.13;;
71490;SDS011;59307;50.060;9.150;2023-02-15T08:36:21;26.75;;;10.65;;
71490;SDS011;59307;50.060;9.150;2023-02-15T08:38:47;24.20;;;11.23;;
71490;SDS011;59307;50.060;9.150;2023-02-15T08:41:17;27.50;;;10.70;;
71490;SDS011;59307;50.060;9.150;2023-02-15T08:43:43;28.20;;;11.33;;
71490;SDS011;59307;50.060;9.150;2023-02-15T08:46:11;25.65;;;10.95;;
71490;SDS011;59307;50.060;9.150;2023-02-15T08:48:37;27.50;;;10.73;;
71490;SDS011;59307;50.060;9.150;2023-02-15T08:51:06;25.10;;;10.98;;
71490;SDS011;59307;50.060;9.150;2023-02-15T08:53:32;27.40;;;10.27;;
71490;SDS011;59307;50.060;9.150;2023-02-15T08:55:57;29.07;;;11.00;;
71490;SDS011;59307;50.060;9.150;2023-02-15T08:58:23;27.33;;;11.73;;
71490;SDS011;59307;50.060;9.150;2023-02-15T09:00:48;27.48;;;11.50;;
71490;SDS011;59307;50.060;9.150;2023-02-15T09:03:14;29.90;;;12.17;;
71490;SDS011;59307;50.060;9.150;2023-02-15T09:05:39;30.07;;;12.10;;
71490;SDS011;59307;50.060;9.150;2023-02-15T09:08:04;29.33;;;11.60;;
71490;SDS011;59307;50.060;9.150;2023-02-15T09:10:29;25.03;;;9.93;;
71490;SDS011;59307;50.060;9.150;2023-02-15T09:12:54;27.80;;;10.90;;
71490;SDS011;59307;50.060;9.150;2023-02-15T09:15:19;25.43;;;10.40;;
71490;SDS011;59307;50.060;9.150;2023-02-15T09:17:45;28.53;;;10.97;;
71490;SDS011;59307;50.060;9.150;2023-02-15T09:20:10;24.93;;;11.07;;
71490;SDS011;59307;50.060;9.150;2023-02-15T09:22:35;23.47;;;9.80;;
71490;SDS011;59307;50.060;9.150;2023-02-15T09:25:00;30.97;;;12.50;;
71490;SDS011;59307;50.060;9.150;2023-02-15T09:27:25;29.23;;;11.27;;
71490;SDS011;59307;50.060;9.150;2023-02-15T09:29:51;25.33;;;10.33;;
71490;SDS011;59307;50.060;9.150;2023-02-15T09:32:16;28.47;;;10.90;;
71490;SDS011;59307;50.060;9.150;2023-02-15T09:34:42;27.45;;;10.82;;
71490;SDS011;59307;50.060;9.150;2023-02-15T09:37:07;27.87;;;10.80;;
71490;SDS011;59307;50.060;9.150;2023-02-15T09:39:32;26.00;;;10.57;;
71490;SDS011;59307;50.060;9.150;2023-02-15T09:55:16;29.60;;;12.02;;
71490;SDS011;59307;50.060;9.150;2023-02-15T10:08:38;25.60;;;10.85;;
71490;SDS011;59307;50.060;9.150;2023-02-15T10:13:58;26.20;;;11.23;;
71490;SDS011;59307;50.060;9.150;2023-02-15T10:19:18;27.10;;;10.55;;
71490;SDS011;59307;50.060;9.150;2023-02-15T10:22:50;24.23;;;9.68;;
71490;SDS011;59307;50.060;9.150;2023-02-15T10:27:12;21.58;;;8.98;;
71490;SDS011;59307;50.060;9.150;2023-02-15T10:29:38;24.75;;;10.57;;
71490;SDS011;59307;50.060;9.150;2023-02-15T10:37:34;27.53;;;10.50;;
71490;SDS011;59307;50.060;9.150;2023-02-15T10:40:21;27.02;;;10.85;;
71490;SDS011;59307;50.060;9.150;2023-02-15T11:00:19;26.80;;;11.80;;
71490;SDS011;59307;50.060;9.150;2023-02-15T11:02:53;27.55;;;12.35;;
71490;SDS011;59307;50.060;9.150;2023-02-15T11:07:50;26.08;;;11.25;;
71490;SDS011;59307;50.060;9.150;2023-02-15T11:10:32;27.37;;;12.53;;
71490;SDS011;59307;50.060;9.150;2023-02-15T11:13:00;25.95;;;11.43;;
71490;SDS011;59307;50.060;9.150;2023-02-15T11:17:55;27.92;;;12.23;;
71490;SDS011;59307;50.060;9.150;2023-02-15T11:20:35;26.85;;;12.35;;
71490;SDS011;59307;50.060;9.150;2023-02-15T11:23:01;26.92;;;12.45;;
71490;SDS011;59307;50.060;9.150;2023-02-15T11:25:31;31.17;;;12.50;;
71490;SDS011;59307;50.060;9.150;2023-02-15T11:27:57;26.23;;;11.88;;
71490;SDS011;59307;50.060;9.150;2023-02-15T11:30:24;28.33;;;12.05;;
71490;SDS011;59307;50.060;9.150;2023-02-15T11:32:51;28.80;;;11.83;;
71490;SDS011;59307;50.060;9.150;2023-02-15T11:35:21;24.98;;;11.77;;
71490;SDS011;59307;50.060;9.150;2023-02-15T11:40:25;26.15;;;11.10;;
71490;SDS011;59307;50.060;9.150;2023-02-15T11:42:53;32.33;;;14.13;;
71490;SDS011;59307;50.060;9.150;2023-02-15T11:45:26;25.00;;;12.30;;
71490;SDS011;59307;50.060;9.150;2023-02-15T11:47:51;31.05;;;13.85;;
71490;SDS011;59307;50.060;9.150;2023-02-15T11:50:19;29.45;;;12.75;;
71490;SDS011;59307;50.060;9.150;2023-02-15T11:52:47;28.10;;;14.02;;
71490;SDS011;59307;50.060;9.150;2023-02-15T11:55:13;28.23;;;13.60;;
71490;SDS011;59307;50.060;9.150;2023-02-15T11:57:41;28.10;;;13.15;;
71490;SDS011;59307;50.060;9.150;2023-02-15T12:02:37;25.95;;;12.40;;
71490;SDS011;59307;50.060;9.150;2023-02-15T12:05:05;29.90;;;13.27;;
71490;SDS011;59307;50.060;9.150;2023-02-15T12:07:37;26.48;;;12.20;;
71490;SDS011;59307;50.060;9.150;2023-02-15T12:10:13;23.23;;;11.38;;
71490;SDS011;59307;50.060;9.150;2023-02-15T12:12:42;29.43;;;13.10;;
71490;SDS011;59307;50.060;9.150;2023-02-15T12:15:08;27.92;;;12.48;;
71490;SDS011;59307;50.060;9.150;2023-02-15T12:17:40;30.00;;;13.55;;
71490;SDS011;59307;50.060;9.150;2023-02-15T12:22:32;27.27;;;13.13;;
71490;SDS011;59307;50.060;9.150;2023-02-15T12:25:02;26.88;;;13.35;;
71490;SDS011;59307;50.060;9.150;2023-02-15T12:27:29;25.80;;;12.83;;
71490;SDS011;59307;50.060;9.150;2023-02-15T12:32:26;27.00;;;12.63;;
71490;SDS011;59307;50.060;9.150;2023-02-15T12:34:54;27.35;;;13.10;;
71490;SDS011;59307;50.060;9.150;2023-02-15T12:37:23;25.88;;;13.30;;
71490;SDS011;59307;50.060;9.150;2023-02-15T12:40:00;27.97;;;13.63;;
71490;SDS011;59307;50.060;9.150;2023-02-15T12:42:26;28.55;;;12.95;;
71490;SDS011;59307;50.060;9.150;2023-02-15T12:44:58;25.15;;;12.35;;
71490;SDS011;59307;50.060;9.150;2023-02-15T12:47:24;27.15;;;13.25;;
71490;SDS011;59307;50.060;9.150;2023-02-15T12:52:41;26.87;;;13.57;;
71490;SDS011;59307;50.060;9.150;2023-02-15T12:55:26;27.80;;;13.23;;
71490;SDS011;59307;50.060;9.150;2023-02-15T12:58:07;26.33;;;12.55;;
71490;SDS011;59307;50.060;9.150;2023-02-15T13:00:33;24.40;;;12.75;;
71490;SDS011;59307;50.060;9.150;2023-02-15T13:02:59;25.98;;;13.00;;
71490;SDS011;59307;50.060;9.150;2023-02-15T13:05:37;25.27;;;12.77;;
71490;SDS011;59307;50.060;9.150;2023-02-15T13:08:08;22.42;;;12.30;;
71490;SDS011;59307;50.060;9.150;2023-02-15T13:10:39;24.33;;;12.63;;
71490;SDS011;59307;50.060;9.150;2023-02-15T13:13:45;28.37;;;13.63;;
71490;SDS011;59307;50.060;9.150;2023-02-15T13:16:01;25.15;;;13.00;;
71490;SDS011;59307;50.060;9.150;2023-02-15T13:18:43;25.35;;;13.10;;
71490;SDS011;59307;50.060;9.150;2023-02-15T13:21:13;25.52;;;12.50;;
71490;SDS011;59307;50.060;9.150;2023-02-15T13:23:39;25.52;;;12.45;;
71490;SDS011;59307;50.060;9.150;2023-02-15T13:26:08;23.97;;;12.50;;
71490;SDS011;59307;50.060;9.150;2023-02-15T13:28:39;21.70;;;11.32;;
71490;SDS011;59307;50.060;9.150;2023-02-15T13:31:11;25.00;;;13.00;;
71490;SDS011;59307;50.060;9.150;2023-02-15T13:33:37;24.67;;;12.38;;
71490;SDS011;59307;50.060;9.150;2023-02-15T13:38:45;24.65;;;12.10;;
71490;SDS011;59307;50.060;9.150;2023-02-15T13:54:29;23.35;;;12.27;;
71490;SDS011;59307;50.060;9.150;2023-02-15T13:57:19;21.48;;;12.18;;
71490;SDS011;59307;50.060;9.150;2023-02-15T14:19:46;19.98;;;11.90;;
71490;SDS011;59307;50.060;9.150;2023-02-15T14:27:43;23.48;;;12.18;;
71490;SDS011;59307;50.060;9.150;2023-02-15T14:30:20;20.15;;;12.05;;
71490;SDS011;59307;50.060;9.150;2023-02-15T14:32:47;20.45;;;11.48;;
71490;SDS011;59307;50.060;9.150;2023-02-15T14:35:23;20.30;;;11.40;;
71490;SDS011;59307;50.060;9.150;2023-02-15T14:40:32;22.15;;;11.88;;
71490;SDS011;59307;50.060;9.150;2023-02-15T14:43:30;21.67;;;12.57;;
71490;SDS011;59307;50.060;9.150;2023-02-15T14:46:07;20.02;;;11.48;;
71490;SDS011;59307;50.060;9.150;2023-02-15T14:48:36;22.73;;;12.98;;
71490;SDS011;59307;50.060;9.150;2023-02-15T14:51:03;22.77;;;12.23;;
71490;SDS011;59307;50.060;9.150;2023-02-15T14:59:28;23.70;;;12.38;;
71490;SDS011;59307;50.060;9.150;2023-02-15T15:03:54;20.70;;;11.57;;
71490;SDS011;59307;50.060;9.150;2023-02-15T15:06:42;24.50;;;11.25;;
71490;SDS011;59307;50.060;9.150;2023-02-15T15:09:20;21.60;;;11.10;;
71490;SDS011;59307;50.060;9.150;2023-02-15T15:11:50;21.40;;;10.77;;
71490;SDS011;59307;50.060;9.150;2023-02-15T15:20:09;20.75;;;9.52;;
71490;SDS011;59307;50.060;9.150;2023-02-15T15:22:38;18.13;;;10.18;;
71490;SDS011;59307;50.060;9.150;2023-02-15T15:35:19;26.27;;;10.73;;
71490;SDS011;59307;50.060;9.150;2023-02-15T15:46:03;18.42;;;9.25;;
71490;SDS011;59307;50.060;9.150;2023-02-15T15:48:30;19.73;;;10.33;;
71490;SDS011;59307;50.060;9.150;2023-02-15T15:51:02;19.58;;;9.45;;
71490;SDS011;59307;50.060;9.150;2023-02-15T15:53:29;18.98;;;9.27;;
71490;SDS011;59307;50.060;9.150;2023-02-15T15:56:00;16.40;;;8.50;;
71490;SDS011;59307;50.060;9.150;2023-02-15T15:58:27;19.40;;;9.73;;
71490;SDS011;59307;50.060;9.150;2023-02-15T16:00:56;17.83;;;9.07;;
71490;SDS011;59307;50.060;9.150;2023-02-15T16:03:24;16.48;;;8.60;;
71490;SDS011;59307;50.060;9.150;2023-02-15T16:05:49;18.88;;;9.43;;
71490;SDS011;59307;50.060;9.150;2023-02-15T16:08:27;20.70;;;9.95;;
71490;SDS011;59307;50.060;9.150;2023-02-15T16:10:52;17.45;;;8.75;;
71490;SDS011;59307;50.060;9.150;2023-02-15T16:13:18;17.23;;;8.90;;
71490;SDS011;59307;50.060;9.150;2023-02-15T16:15:44;20.13;;;8.60;;
71490;SDS011;59307;50.060;9.150;2023-02-15T16:18:12;15.80;;;8.43;;
71490;SDS011;59307;50.060;9.150;2023-02-15T16:20:39;19.77;;;9.23;;
71490;SDS011;59307;50.060;9.150;2023-02-15T16:23:11;19.50;;;8.70;;
71490;SDS011;59307;50.060;9.150;2023-02-15T16:28:25;18.70;;;8.73;;
71490;SDS011;59307;50.060;9.150;2023-02-15T16:31:12;18.80;;;9.67;;
71490;SDS011;59307;50.060;9.150;2023-02-15T16:33:36;20.77;;;9.48;;
71490;SDS011;59307;50.060;9.150;2023-02-15T16:36:02;20.08;;;9.00;;
71490;SDS011;59307;50.060;9.150;2023-02-15T16:41:06;20.98;;;10.18;;
71490;SDS011;59307;50.060;9.150;2023-02-15T16:43:32;20.67;;;9.90;;
71490;SDS011;59307;50.060;9.150;2023-02-15T16:46:04;21.97;;;9.03;;
71490;SDS011;59307;50.060;9.150;2023-02-15T16:48:31;21.17;;;10.13;;
71490;SDS011;59307;50.060;9.150;2023-02-15T16:50:56;19.80;;;9.68;;
71490;SDS011;59307;50.060;9.150;2023-02-15T16:53:24;20.73;;;9.43;;
71490;SDS011;59307;50.060;9.150;2023-02-15T16:55:50;20.40;;;10.27;;
71490;SDS011;59307;50.060;9.150;2023-02-15T16:58:16;22.80;;;10.48;;
71490;SDS011;59307;50.060;9.150;2023-02-15T17:00:42;22.50;;;10.32;;
71490;SDS011;59307;50.060;9.150;2023-02-15T17:05:41;22.02;;;10.93;;
71490;SDS011;59307;50.060;9.150;2023-02-15T17:08:14;22.00;;;10.20;;
71490;SDS011;59307;50.060;9.150;2023-02-15T17:10:41;27.10;;;11.23;;
71490;SDS011;59307;50.060;9.150;2023-02-15T17:13:10;25.23;;;11.37;;
71490;SDS011;59307;50.060;9.150;2023-02-15T17:15:43;23.63;;;10.77;;
71490;SDS011;59307;50.060;9.150;2023-02-15T17:18:11;22.98;;;11.18;;
71490;SDS011;59307;50.060;9.150;2023-02-15T17:20:37;26.33;;;12.05;;
71490;SDS011;59307;50.060;9.150;2023-02-15T17:23:03;23.80;;;11.37;;
71490;SDS011;59307;50.060;9.150;2023-02-15T17:25:33;25.55;;;11.52;;
71490;SDS011;59307;50.060;9.150;2023-02-15T17:27:59;26.90;;;12.20;;
71490;SDS011;59307;50.060;9.150;2023-02-15T17:30:31;26.00;;;11.43;;
71490;SDS011;59307;50.060;9.150;2023-02-15T17:32:58;28.80;;;12.23;;
71490;SDS011;59307;50.060;9.150;2023-02-15T17:35:31;25.00;;;11.27;;